sensor_id;sensor_type;location;lat;lon;timestamp;temperature;humidity
23083;DHT22;11709;52.420;10.538;2023-02-13T00:00:23;7.30;99.90
23083;DHT22;11709;52.420;10.538;2023-02-13T00:04:26;7.20;99.90
23083;DHT22;11709;52.420;10.538;2023-02-13T00:08:29;7.30;99.90
23083;DHT22;11709;52.420;10.538;2023-02-13T00:12:31;7.30;99.90
23083;DHT22;11709;52.420;10.538;2023-02-13T00:16:34;7.30;99.90
23083;DHT22;11709;52.420;10.538;2023-02-13T00:20:36;7.30;99.90
23083;DHT22;11709;52.420;10.538;2023-02-13T00:24:39;7.30;99.90
23083;DHT22;11709;52.420;10.538;2023-02-13T00:28:42;7.30;99.90
23083;DHT22;11709;52.420;10.538;2023-02-13T00:32:45;7.30;99.90
23083;DHT22;11709;52.420;10.538;2023-02-13T00:36:47;7.30;99.90
23083;DHT22;11709;52.420;10.538;2023-02-13T00:40:50;7.30;99.90
23083;DHT22;11709;52.420;10.538;2023-02-13T00:44:53;7.20;99.90
23083;DHT22;11709;52.420;10.538;2023-02-13T00:48:55;7.30;99.90
23083;DHT22;11709;52.420;10.538;2023-02-13T00:52:58;7.20;99.90
23083;DHT22;11709;52.420;10.538;2023-02-13T00:57:00;7.20;99.90
23083;DHT22;11709;52.420;10.538;2023-02-13T01:01:03;7.20;99.90
23083;DHT22;11709;52.420;10.538;2023-02-13T01:05:06;7.10;99.90
23083;DHT22;11709;52.420;10.538;2023-02-13T01:09:08;7.10;99.90
23083;DHT22;11709;52.420;10.538;2023-02-13T01:13:12;7.10;99.90
23083;DHT22;11709;52.420;10.538;2023-02-13T01:17:15;7.10;99.90
23083;DHT22;11709;52.420;10.538;2023-02-13T01:21:20;7.10;99.90
23083;DHT22;11709;52.420;10.538;2023-02-13T01:25:25;7.10;99.90
23083;DHT22;11709;52.420;10.538;2023-02-13T01:29:28;7.00;99.90
23083;DHT22;11709;52.420;10.538;2023-02-13T01:33:31;7.10;99.90
23083;DHT22;11709;52.420;10.538;2023-02-13T01:37:35;7.00;99.90
23083;DHT22;11709;52.420;10.538;2023-02-13T01:41:37;7.10;99.90
23083;DHT22;11709;52.420;10.538;2023-02-13T01:45:41;7.00;99.90
23083;DHT22;11709;52.420;10.538;2023-02-13T01:49:45;7.10;99.90
23083;DHT22;11709;52.420;10.538;2023-02-13T01:54:11;7.10;99.90
23083;DHT22;11709;52.420;10.538;2023-02-13T01:58:11;7.10;99.90
23083;DHT22;11709;52.420;10.538;2023-02-13T02:02:15;7.10;99.90
23083;DHT22;11709;52.420;10.538;2023-02-13T02:06:21;7.10;99.90
23083;DHT22;11709;52.420;10.538;2023-02-13T02:10:24;7.10;99.90
23083;DHT22;11709;52.420;10.538;2023-02-13T02:14:27;7.10;99.90
23083;DHT22;11709;52.420;10.538;2023-02-13T02:18:29;7.00;99.90
23083;DHT22;11709;52.420;10.538;2023-02-13T02:27:13;7.10;99.90
23083;DHT22;11709;52.420;10.538;2023-02-13T02:36:11;7.00;99.90
23083;DHT22;11709;52.420;10.538;2023-02-13T02:57:47;7.10;99.90
23083;DHT22;11709;52.420;10.538;2023-02-13T03:02:08;7.10;99.90
23083;DHT22;11709;52.420;10.538;2023-02-13T03:06:34;7.10;99.90
23083;DHT22;11709;52.420;10.538;2023-02-13T03:10:37;7.10;99.90
23083;DHT22;11709;52.420;10.538;2023-02-13T03:14:57;7.10;99.90
23083;DHT22;11709;52.420;10.538;2023-02-13T03:19:00;7.10;99.90
23083;DHT22;11709;52.420;10.538;2023-02-13T03:32:40;7.10;99.90
23083;DHT22;11709;52.420;10.538;2023-02-13T03:37:00;7.10;99.90
23083;DHT22;11709;52.420;10.538;2023-02-13T03:41:42;7.10;99.90
23083;DHT22;11709;52.420;10.538;2023-02-13T03:45:46;7.00;99.90
23083;DHT22;11709;52.420;10.538;2023-02-13T03:49:57;7.00;99.90
23083;DHT22;11709;52.420;10.538;2023-02-13T03:54:24;7.00;99.90
23083;DHT22;11709;52.420;10.538;2023-02-13T03:58:47;7.00;99.90
23083;DHT22;11709;52.420;10.538;2023-02-13T04:07:20;7.00;99.90
23083;DHT22;11709;52.420;10.538;2023-02-13T04:11:34;7.00;99.90
23083;DHT22;11709;52.420;10.538;2023-02-13T04:15:45;7.00;99.90
23083;DHT22;11709;52.420;10.538;2023-02-13T04:19:48;7.00;99.90
23083;DHT22;11709;52.420;10.538;2023-02-13T04:23:51;6.90;99.90
23083;DHT22;11709;52.420;10.538;2023-02-13T04:27:53;6.90;99.90
23083;DHT22;11709;52.420;10.538;2023-02-13T04:31:55;6.90;99.90
23083;DHT22;11709;52.420;10.538;2023-02-13T04:35:58;6.90;99.90
23083;DHT22;11709;52.420;10.538;2023-02-13T04:40:00;6.90;99.90
23083;DHT22;11709;52.420;10.538;2023-02-13T04:44:03;6.80;99.90
23083;DHT22;11709;52.420;10.538;2023-02-13T04:48:06;6.80;99.90
23083;DHT22;11709;52.420;10.538;2023-02-13T04:52:08;6.80;99.90
23083;DHT22;11709;52.420;10.538;2023-02-13T04:56:11;6.80;99.90
23083;DHT22;11709;52.420;10.538;2023-02-13T05:00:14;6.80;99.90
23083;DHT22;11709;52.420;10.538;2023-02-13T05:04:16;6.80;99.90
23083;DHT22;11709;52.420;10.538;2023-02-13T05:08:19;6.80;99.90
23083;DHT22;11709;52.420;10.538;2023-02-13T05:12:21;6.90;99.90
23083;DHT22;11709;52.420;10.538;2023-02-13T05:16:24;6.80;99.90
23083;DHT22;11709;52.420;10.538;2023-02-13T05:20:26;6.80;99.90
23083;DHT22;11709;52.420;10.538;2023-02-13T05:24:29;6.80;99.90
23083;DHT22;11709;52.420;10.538;2023-02-13T05:28:31;6.80;99.90
23083;DHT22;11709;52.420;10.538;2023-02-13T05:32:52;6.80;99.90
23083;DHT22;11709;52.420;10.538;2023-02-13T05:36:55;6.80;99.90
23083;DHT22;11709;52.420;10.538;2023-02-13T05:40:59;6.80;99.90
23083;DHT22;11709;52.420;10.538;2023-02-13T05:45:02;6.80;99.90
23083;DHT22;11709;52.420;10.538;2023-02-13T05:49:05;6.80;99.90
23083;DHT22;11709;52.420;10.538;2023-02-13T05:53:08;6.80;99.90
23083;DHT22;11709;52.420;10.538;2023-02-13T05:57:10;6.80;99.90
23083;DHT22;11709;52.420;10.538;2023-02-13T06:01:13;6.80;99.90
23083;DHT22;11709;52.420;10.538;2023-02-13T06:05:15;6.80;99.90
23083;DHT22;11709;52.420;10.538;2023-02-13T06:09:18;6.80;99.90
23083;DHT22;11709;52.420;10.538;2023-02-13T06:13:21;6.80;99.90
23083;DHT22;11709;52.420;10.538;2023-02-13T06:17:23;6.80;99.90
23083;DHT22;11709;52.420;10.538;2023-02-13T06:21:26;6.80;99.90
23083;DHT22;11709;52.420;10.538;2023-02-13T06:25:28;6.80;99.90
23083;DHT22;11709;52.420;10.538;2023-02-13T06:29:31;6.80;99.90
23083;DHT22;11709;52.420;10.538;2023-02-13T06:33:33;6.80;99.90
23083;DHT22;11709;52.420;10.538;2023-02-13T06:37:36;6.80;99.90
23083;DHT22;11709;52.420;10.538;2023-02-13T06:41:40;6.80;99.90
23083;DHT22;11709;52.420;10.538;2023-02-13T06:45:43;6.80;99.90
23083;DHT22;11709;52.420;10.538;2023-02-13T06:49:47;6.90;99.90
23083;DHT22;11709;52.420;10.538;2023-02-13T06:53:49;6.80;99.90
23083;DHT22;11709;52.420;10.538;2023-02-13T06:57:52;6.90;99.90
23083;DHT22;11709;52.420;10.538;2023-02-13T07:01:54;6.90;99.90
23083;DHT22;11709;52.420;10.538;2023-02-13T07:05:57;6.90;99.90
23083;DHT22;11709;52.420;10.538;2023-02-13T07:10:00;6.90;99.90
23083;DHT22;11709;52.420;10.538;2023-02-13T07:14:02;6.90;99.90
23083;DHT22;11709;52.420;10.538;2023-02-13T07:18:05;6.90;99.90
23083;DHT22;11709;52.420;10.538;2023-02-13T07:22:08;6.90;99.90
23083;DHT22;11709;52.420;10.538;2023-02-13T07:26:10;6.90;99.90
23083;DHT22;11709;52.420;10.538;2023-02-13T07:30:13;7.00;99.90
23083;DHT22;11709;52.420;10.538;2023-02-13T07:34:15;7.00;99.90
23083;DHT22;11709;52.420;10.538;2023-02-13T07:38:18;7.00;99.90
23083;DHT22;11709;52.420;10.538;2023-02-13T07:42:21;7.00;99.90
23083;DHT22;11709;52.420;10.538;2023-02-13T07:46:23;7.10;99.90
23083;DHT22;11709;52.420;10.538;2023-02-13T07:50:26;7.10;99.90
23083;DHT22;11709;52.420;10.538;2023-02-13T07:54:29;7.10;99.90
23083;DHT22;11709;52.420;10.538;2023-02-13T07:58:32;7.10;99.90
23083;DHT22;11709;52.420;10.538;2023-02-13T08:02:34;7.20;99.90
23083;DHT22;11709;52.420;10.538;2023-02-13T08:06:40;7.20;99.90
23083;DHT22;11709;52.420;10.538;2023-02-13T08:10:42;7.20;99.90
23083;DHT22;11709;52.420;10.538;2023-02-13T08:15:03;7.20;99.90
23083;DHT22;11709;52.420;10.538;2023-02-13T08:19:06;7.30;99.90
23083;DHT22;11709;52.420;10.538;2023-02-13T08:23:09;7.30;99.90
23083;DHT22;11709;52.420;10.538;2023-02-13T08:27:13;7.30;99.90
23083;DHT22;11709;52.420;10.538;2023-02-13T08:31:16;7.30;99.90
23083;DHT22;11709;52.420;10.538;2023-02-13T08:35:18;7.30;99.90
23083;DHT22;11709;52.420;10.538;2023-02-13T08:39:21;7.30;99.90
23083;DHT22;11709;52.420;10.538;2023-02-13T08:43:24;7.40;99.90
23083;DHT22;11709;52.420;10.538;2023-02-13T08:47:26;7.40;99.90
23083;DHT22;11709;52.420;10.538;2023-02-13T08:51:29;7.50;99.90
23083;DHT22;11709;52.420;10.538;2023-02-13T08:55:31;7.50;99.90
23083;DHT22;11709;52.420;10.538;2023-02-13T08:59:34;7.50;99.90
23083;DHT22;11709;52.420;10.538;2023-02-13T09:03:36;7.60;99.90
23083;DHT22;11709;52.420;10.538;2023-02-13T09:07:39;7.60;99.90
23083;DHT22;11709;52.420;10.538;2023-02-13T09:11:41;7.60;99.90
23083;DHT22;11709;52.420;10.538;2023-02-13T09:15:44;7.60;99.90
23083;DHT22;11709;52.420;10.538;2023-02-13T09:19:46;7.70;99.90
23083;DHT22;11709;52.420;10.538;2023-02-13T09:23:49;7.70;99.90
23083;DHT22;11709;52.420;10.538;2023-02-13T09:27:53;7.70;99.90
23083;DHT22;11709;52.420;10.538;2023-02-13T09:31:56;7.70;99.90
23083;DHT22;11709;52.420;10.538;2023-02-13T09:35:58;7.70;99.90
23083;DHT22;11709;52.420;10.538;2023-02-13T09:40:02;7.70;99.90
23083;DHT22;11709;52.420;10.538;2023-02-13T09:44:15;7.80;99.90
23083;DHT22;11709;52.420;10.538;2023-02-13T09:48:36;7.80;99.90
23083;DHT22;11709;52.420;10.538;2023-02-13T09:52:42;7.80;99.90
23083;DHT22;11709;52.420;10.538;2023-02-13T09:57:05;7.90;99.90
23083;DHT22;11709;52.420;10.538;2023-02-13T10:01:31;7.90;99.90
23083;DHT22;11709;52.420;10.538;2023-02-13T10:05:43;7.90;99.90
23083;DHT22;11709;52.420;10.538;2023-02-13T10:09:52;7.90;99.90
23083;DHT22;11709;52.420;10.538;2023-02-13T10:14:15;7.90;99.90
23083;DHT22;11709;52.420;10.538;2023-02-13T10:18:20;8.00;99.90
23083;DHT22;11709;52.420;10.538;2023-02-13T10:22:32;8.00;99.90
23083;DHT22;11709;52.420;10.538;2023-02-13T10:26:36;8.00;99.90
23083;DHT22;11709;52.420;10.538;2023-02-13T10:30:52;8.00;99.90
23083;DHT22;11709;52.420;10.538;2023-02-13T10:34:54;8.00;99.90
23083;DHT22;11709;52.420;10.538;2023-02-13T10:43:10;8.00;99.90
23083;DHT22;11709;52.420;10.538;2023-02-13T10:51:28;8.10;99.90
23083;DHT22;11709;52.420;10.538;2023-02-13T11:04:13;8.10;99.90
23083;DHT22;11709;52.420;10.538;2023-02-13T11:08:25;8.10;99.90
23083;DHT22;11709;52.420;10.538;2023-02-13T11:12:33;8.10;99.90
23083;DHT22;11709;52.420;10.538;2023-02-13T11:16:52;8.00;99.90
23083;DHT22;11709;52.420;10.538;2023-02-13T11:21:18;8.00;99.90
23083;DHT22;11709;52.420;10.538;2023-02-13T11:25:24;8.00;99.90
23083;DHT22;11709;52.420;10.538;2023-02-13T11:29:30;8.00;99.90
23083;DHT22;11709;52.420;10.538;2023-02-13T11:33:33;7.90;99.90
23083;DHT22;11709;52.420;10.538;2023-02-13T11:37:35;8.00;99.90
23083;DHT22;11709;52.420;10.538;2023-02-13T11:41:43;8.00;99.90
23083;DHT22;11709;52.420;10.538;2023-02-13T11:45:46;8.00;99.90
23083;DHT22;11709;52.420;10.538;2023-02-13T11:49:49;8.00;99.90
23083;DHT22;11709;52.420;10.538;2023-02-13T11:53:51;8.00;99.90
23083;DHT22;11709;52.420;10.538;2023-02-13T11:58:25;8.00;99.90
23083;DHT22;11709;52.420;10.538;2023-02-13T12:02:18;8.10;99.90
23083;DHT22;11709;52.420;10.538;2023-02-13T12:06:21;8.10;99.90
23083;DHT22;11709;52.420;10.538;2023-02-13T12:10:26;8.20;99.90
23083;DHT22;11709;52.420;10.538;2023-02-13T12:14:36;8.20;99.90
23083;DHT22;11709;52.420;10.538;2023-02-13T12:18:47;8.20;99.90
23083;DHT22;11709;52.420;10.538;2023-02-13T12:27:07;8.20;99.90
23083;DHT22;11709;52.420;10.538;2023-02-13T12:31:11;8.20;99.90
23083;DHT22;11709;52.420;10.538;2023-02-13T12:35:43;8.30;99.90
23083;DHT22;11709;52.420;10.538;2023-02-13T12:39:51;8.40;99.90
23083;DHT22;11709;52.420;10.538;2023-02-13T12:44:04;8.40;99.90
23083;DHT22;11709;52.420;10.538;2023-02-13T12:48:33;8.40;99.90
23083;DHT22;11709;52.420;10.538;2023-02-13T12:52:44;8.50;99.90
23083;DHT22;11709;52.420;10.538;2023-02-13T12:57:03;8.60;99.90
23083;DHT22;11709;52.420;10.538;2023-02-13T13:18:59;8.70;99.90
23083;DHT22;11709;52.420;10.538;2023-02-13T13:23:10;8.70;99.90
23083;DHT22;11709;52.420;10.538;2023-02-13T13:27:17;8.70;99.90
23083;DHT22;11709;52.420;10.538;2023-02-13T13:31:23;8.70;99.90
23083;DHT22;11709;52.420;10.538;2023-02-13T13:35:28;8.80;99.90
23083;DHT22;11709;52.420;10.538;2023-02-13T13:39:42;8.70;99.90
23083;DHT22;11709;52.420;10.538;2023-02-13T13:44:02;8.80;99.90
23083;DHT22;11709;52.420;10.538;2023-02-13T13:52:34;8.80;99.90
23083;DHT22;11709;52.420;10.538;2023-02-13T14:01:23;8.80;99.90
23083;DHT22;11709;52.420;10.538;2023-02-13T14:05:30;8.80;99.90
23083;DHT22;11709;52.420;10.538;2023-02-13T14:09:45;8.80;99.90
23083;DHT22;11709;52.420;10.538;2023-02-13T14:13:44;8.70;99.90
23083;DHT22;11709;52.420;10.538;2023-02-13T14:17:50;8.70;99.90
23083;DHT22;11709;52.420;10.538;2023-02-13T14:21:55;8.70;99.90
23083;DHT22;11709;52.420;10.538;2023-02-13T14:26:27;8.70;99.90
23083;DHT22;11709;52.420;10.538;2023-02-13T14:30:35;8.70;99.90
23083;DHT22;11709;52.420;10.538;2023-02-13T14:34:39;8.70;99.90
23083;DHT22;11709;52.420;10.538;2023-02-13T14:38:42;8.70;99.90
23083;DHT22;11709;52.420;10.538;2023-02-13T14:42:47;8.60;99.90
23083;DHT22;11709;52.420;10.538;2023-02-13T14:46:51;8.60;99.90
23083;DHT22;11709;52.420;10.538;2023-02-13T14:50:55;8.60;99.90
23083;DHT22;11709;52.420;10.538;2023-02-13T14:55:48;8.60;99.90
23083;DHT22;11709;52.420;10.538;2023-02-13T14:59:16;8.60;99.90
23083;DHT22;11709;52.420;10.538;2023-02-13T15:03:23;8.60;99.90
23083;DHT22;11709;52.420;10.538;2023-02-13T15:07:36;8.60;99.90
23083;DHT22;11709;52.420;10.538;2023-02-13T15:11:42;8.60;99.90
23083;DHT22;11709;52.420;10.538;2023-02-13T15:15:53;8.60;99.90
23083;DHT22;11709;52.420;10.538;2023-02-13T15:19:57;8.60;99.90
23083;DHT22;11709;52.420;10.538;2023-02-13T15:23:59;8.60;99.90
23083;DHT22;11709;52.420;10.538;2023-02-13T15:28:03;8.60;99.90
23083;DHT22;11709;52.420;10.538;2023-02-13T15:32:25;8.70;99.90
23083;DHT22;11709;52.420;10.538;2023-02-13T15:36:32;8.70;99.90
23083;DHT22;11709;52.420;10.538;2023-02-13T15:40:32;8.60;99.90
23083;DHT22;11709;52.420;10.538;2023-02-13T15:44:37;8.60;99.90
23083;DHT22;11709;52.420;10.538;2023-02-13T15:48:42;8.50;99.90
23083;DHT22;11709;52.420;10.538;2023-02-13T15:52:45;8.50;99.90
23083;DHT22;11709;52.420;10.538;2023-02-13T15:56:50;8.50;99.90
23083;DHT22;11709;52.420;10.538;2023-02-13T16:00:53;8.50;99.90
23083;DHT22;11709;52.420;10.538;2023-02-13T16:04:55;8.50;99.90
23083;DHT22;11709;52.420;10.538;2023-02-13T16:08:59;8.50;99.90
23083;DHT22;11709;52.420;10.538;2023-02-13T16:13:04;8.40;99.90
23083;DHT22;11709;52.420;10.538;2023-02-13T16:17:43;8.40;99.90
23083;DHT22;11709;52.420;10.538;2023-02-13T16:21:24;8.40;99.90
23083;DHT22;11709;52.420;10.538;2023-02-13T16:25:37;8.40;99.90
23083;DHT22;11709;52.420;10.538;2023-02-13T16:29:36;8.40;99.90
23083;DHT22;11709;52.420;10.538;2023-02-13T16:33:42;8.30;99.90
23083;DHT22;11709;52.420;10.538;2023-02-13T16:37:48;8.20;99.90
23083;DHT22;11709;52.420;10.538;2023-02-13T16:41:51;8.20;99.90
23083;DHT22;11709;52.420;10.538;2023-02-13T16:45:53;8.20;99.90
23083;DHT22;11709;52.420;10.538;2023-02-13T16:49:57;8.10;99.90
23083;DHT22;11709;52.420;10.538;2023-02-13T16:58:09;8.10;99.90
23083;DHT22;11709;52.420;10.538;2023-02-13T17:02:18;8.00;99.90
23083;DHT22;11709;52.420;10.538;2023-02-13T17:06:23;8.00;99.90
23083;DHT22;11709;52.420;10.538;2023-02-13T17:10:31;8.00;99.90
23083;DHT22;11709;52.420;10.538;2023-02-13T17:14:36;8.00;99.90
23083;DHT22;11709;52.420;10.538;2023-02-13T17:18:39;7.90;99.90
23083;DHT22;11709;52.420;10.538;2023-02-13T17:22:43;7.90;99.90
23083;DHT22;11709;52.420;10.538;2023-02-13T17:26:46;7.80;99.90
23083;DHT22;11709;52.420;10.538;2023-02-13T17:30:51;7.80;99.90
23083;DHT22;11709;52.420;10.538;2023-02-13T17:34:54;7.80;99.90
23083;DHT22;11709;52.420;10.538;2023-02-13T17:38:57;7.80;99.90
23083;DHT22;11709;52.420;10.538;2023-02-13T17:42:59;7.80;99.90
23083;DHT22;11709;52.420;10.538;2023-02-13T17:47:02;7.80;99.90
23083;DHT22;11709;52.420;10.538;2023-02-13T17:51:04;7.80;99.90
23083;DHT22;11709;52.420;10.538;2023-02-13T17:59:19;7.80;99.90
23083;DHT22;11709;52.420;10.538;2023-02-13T18:03:21;7.80;99.90
23083;DHT22;11709;52.420;10.538;2023-02-13T18:07:24;7.80;99.90
23083;DHT22;11709;52.420;10.538;2023-02-13T18:11:26;7.80;99.90
23083;DHT22;11709;52.420;10.538;2023-02-13T18:15:34;7.80;99.90
23083;DHT22;11709;52.420;10.538;2023-02-13T18:19:37;7.70;99.90
23083;DHT22;11709;52.420;10.538;2023-02-13T18:23:40;7.80;99.90
23083;DHT22;11709;52.420;10.538;2023-02-13T18:27:42;7.70;99.90
23083;DHT22;11709;52.420;10.538;2023-02-13T18:31:45;7.70;99.90
23083;DHT22;11709;52.420;10.538;2023-02-13T18:35:47;7.70;99.90
23083;DHT22;11709;52.420;10.538;2023-02-13T18:39:50;7.70;99.90
23083;DHT22;11709;52.420;10.538;2023-02-13T18:43:55;7.60;99.90
23083;DHT22;11709;52.420;10.538;2023-02-13T18:47:58;7.60;99.90
23083;DHT22;11709;52.420;10.538;2023-02-13T18:52:02;7.60;99.90
23083;DHT22;11709;52.420;10.538;2023-02-13T18:56:06;7.60;99.90
23083;DHT22;11709;52.420;10.538;2023-02-13T19:00:09;7.60;99.90
23083;DHT22;11709;52.420;10.538;2023-02-13T19:04:13;7.50;99.90
23083;DHT22;11709;52.420;10.538;2023-02-13T19:08:15;7.50;99.90
23083;DHT22;11709;52.420;10.538;2023-02-13T19:12:18;7.50;99.90
23083;DHT22;11709;52.420;10.538;2023-02-13T19:16:21;7.40;99.90
23083;DHT22;11709;52.420;10.538;2023-02-13T19:20:24;7.40;99.90
23083;DHT22;11709;52.420;10.538;2023-02-13T19:24:27;7.40;99.90
23083;DHT22;11709;52.420;10.538;2023-02-13T19:28:29;7.40;99.90
23083;DHT22;11709;52.420;10.538;2023-02-13T19:32:32;7.40;99.90
23083;DHT22;11709;52.420;10.538;2023-02-13T19:36:34;7.30;99.90
23083;DHT22;11709;52.420;10.538;2023-02-13T19:40:37;7.40;99.90
23083;DHT22;11709;52.420;10.538;2023-02-13T19:44:39;7.30;99.90
23083;DHT22;11709;52.420;10.538;2023-02-13T19:48:44;7.30;99.90
23083;DHT22;11709;52.420;10.538;2023-02-13T19:52:47;7.30;99.90
23083;DHT22;11709;52.420;10.538;2023-02-13T19:56:49;7.30;99.90
23083;DHT22;11709;52.420;10.538;2023-02-13T20:00:54;7.30;99.90
23083;DHT22;11709;52.420;10.538;2023-02-13T20:04:56;7.20;99.90
23083;DHT22;11709;52.420;10.538;2023-02-13T20:09:00;7.20;99.90
23083;DHT22;11709;52.420;10.538;2023-02-13T20:13:02;7.10;99.90
23083;DHT22;11709;52.420;10.538;2023-02-13T20:17:05;7.10;99.90
23083;DHT22;11709;52.420;10.538;2023-02-13T20:21:09;7.10;99.90
23083;DHT22;11709;52.420;10.538;2023-02-13T20:25:12;7.10;99.90
23083;DHT22;11709;52.420;10.538;2023-02-13T20:29:14;7.10;99.90
23083;DHT22;11709;52.420;10.538;2023-02-13T20:33:17;7.10;99.90
23083;DHT22;11709;52.420;10.538;2023-02-13T20:37:19;7.00;99.90
23083;DHT22;11709;52.420;10.538;2023-02-13T20:41:25;6.90;99.90
23083;DHT22;11709;52.420;10.538;2023-02-13T20:45:27;6.80;99.90
23083;DHT22;11709;52.420;10.538;2023-02-13T20:49:30;6.60;99.90
23083;DHT22;11709;52.420;10.538;2023-02-13T20:53:32;6.40;99.90
23083;DHT22;11709;52.420;10.538;2023-02-13T20:57:35;6.30;99.90
23083;DHT22;11709;52.420;10.538;2023-02-13T21:01:38;6.10;99.90
23083;DHT22;11709;52.420;10.538;2023-02-13T21:05:41;6.00;99.90
23083;DHT22;11709;52.420;10.538;2023-02-13T21:09:44;5.90;99.90
23083;DHT22;11709;52.420;10.538;2023-02-13T21:13:47;5.70;99.90
23083;DHT22;11709;52.420;10.538;2023-02-13T21:17:49;5.60;99.90
23083;DHT22;11709;52.420;10.538;2023-02-13T21:21:52;5.50;99.90
23083;DHT22;11709;52.420;10.538;2023-02-13T21:25:55;5.40;99.90
23083;DHT22;11709;52.420;10.538;2023-02-13T21:29:57;5.30;99.90
23083;DHT22;11709;52.420;10.538;2023-02-13T21:34:05;5.20;99.90
23083;DHT22;11709;52.420;10.538;2023-02-13T21:38:08;5.10;99.90
23083;DHT22;11709;52.420;10.538;2023-02-13T21:42:10;4.90;99.90
23083;DHT22;11709;52.420;10.538;2023-02-13T21:46:18;4.80;99.90
23083;DHT22;11709;52.420;10.538;2023-02-13T21:50:22;4.80;99.90
23083;DHT22;11709;52.420;10.538;2023-02-13T21:54:24;4.70;99.90
23083;DHT22;11709;52.420;10.538;2023-02-13T21:58:27;4.60;99.90
23083;DHT22;11709;52.420;10.538;2023-02-13T22:02:30;4.60;99.90
23083;DHT22;11709;52.420;10.538;2023-02-13T22:06:35;4.50;99.90
23083;DHT22;11709;52.420;10.538;2023-02-13T22:10:38;4.40;99.90
23083;DHT22;11709;52.420;10.538;2023-02-13T22:14:40;4.30;99.90
23083;DHT22;11709;52.420;10.538;2023-02-13T22:18:43;4.30;99.90
23083;DHT22;11709;52.420;10.538;2023-02-13T22:22:46;4.30;99.90
23083;DHT22;11709;52.420;10.538;2023-02-13T22:26:49;4.20;99.90
23083;DHT22;11709;52.420;10.538;2023-02-13T22:30:51;4.20;99.90
23083;DHT22;11709;52.420;10.538;2023-02-13T22:34:54;4.10;99.90
23083;DHT22;11709;52.420;10.538;2023-02-13T22:38:56;4.00;99.90
23083;DHT22;11709;52.420;10.538;2023-02-13T22:42:59;4.00;99.90
23083;DHT22;11709;52.420;10.538;2023-02-13T22:47:01;3.90;99.90
23083;DHT22;11709;52.420;10.538;2023-02-13T22:51:05;3.80;99.90
23083;DHT22;11709;52.420;10.538;2023-02-13T22:55:08;3.70;99.90
23083;DHT22;11709;52.420;10.538;2023-02-13T22:59:11;3.60;99.90
23083;DHT22;11709;52.420;10.538;2023-02-13T23:03:13;3.60;99.90
23083;DHT22;11709;52.420;10.538;2023-02-13T23:07:16;3.50;99.90
23083;DHT22;11709;52.420;10.538;2023-02-13T23:11:20;3.50;99.90
23083;DHT22;11709;52.420;10.538;2023-02-13T23:15:41;3.50;99.90
23083;DHT22;11709;52.420;10.538;2023-02-13T23:19:44;3.40;99.90
23083;DHT22;11709;52.420;10.538;2023-02-13T23:23:46;3.40;99.90
23083;DHT22;11709;52.420;10.538;2023-02-13T23:27:49;3.40;99.90
23083;DHT22;11709;52.420;10.538;2023-02-13T23:31:54;3.40;99.90
23083;DHT22;11709;52.420;10.538;2023-02-13T23:35:56;3.30;99.90
23083;DHT22;11709;52.420;10.538;2023-02-13T23:39:59;3.20;99.90
23083;DHT22;11709;52.420;10.538;2023-02-13T23:44:01;3.20;99.90
23083;DHT22;11709;52.420;10.538;2023-02-13T23:48:05;3.10;99.90
23083;DHT22;11709;52.420;10.538;2023-02-13T23:52:07;3.00;99.90
23083;DHT22;11709;52.420;10.538;2023-02-13T23:56:10;3.00;99.90
